sensor_id;sensor_type;location;lat;lon;timestamp;pressure;altitude;pressure_sealevel;temperature;humidity
19457;BME280;9867;48.094;11.478;2023-04-19T00:00:05;95596.66;;;9.06;100.00
19457;BME280;9867;48.094;11.478;2023-04-19T00:02:36;95588.44;;;8.96;100.00
19457;BME280;9867;48.094;11.478;2023-04-19T00:05:08;95583.13;;;8.98;100.00
19457;BME280;9867;48.094;11.478;2023-04-19T00:07:39;95589.66;;;9.00;100.00
19457;BME280;9867;48.094;11.478;2023-04-19T00:10:08;95590.38;;;9.09;100.00
19457;BME280;9867;48.094;11.478;2023-04-19T00:12:36;95586.31;;;9.00;100.00
19457;BME280;9867;48.094;11.478;2023-04-19T00:15:05;95578.22;;;8.96;100.00
19457;BME280;9867;48.094;11.478;2023-04-19T00:17:33;95571.84;;;8.92;100.00
19457;BME280;9867;48.094;11.478;2023-04-19T00:20:02;95572.81;;;8.91;100.00
19457;BME280;9867;48.094;11.478;2023-04-19T00:22:31;95577.22;;;8.82;100.00
19457;BME280;9867;48.094;11.478;2023-04-19T00:25:01;95574.19;;;8.79;100.00
19457;BME280;9867;48.094;11.478;2023-04-19T00:27:29;95569.88;;;8.79;100.00
19457;BME280;9867;48.094;11.478;2023-04-19T00:29:58;95574.53;;;8.76;100.00
19457;BME280;9867;48.094;11.478;2023-04-19T00:32:26;95568.03;;;8.73;100.00
19457;BME280;9867;48.094;11.478;2023-04-19T00:34:53;95564.06;;;8.71;100.00
19457;BME280;9867;48.094;11.478;2023-04-19T00:37:22;95570.94;;;8.70;100.00
19457;BME280;9867;48.094;11.478;2023-04-19T00:39:50;95568.47;;;8.77;100.00
19457;BME280;9867;48.094;11.478;2023-04-19T00:42:19;95561.94;;;8.74;100.00
19457;BME280;9867;48.094;11.478;2023-04-19T00:44:47;95567.25;;;8.73;100.00
19457;BME280;9867;48.094;11.478;2023-04-19T00:47:15;95563.16;;;8.78;100.00
19457;BME280;9867;48.094;11.478;2023-04-19T00:49:44;95559.28;;;8.68;100.00
19457;BME280;9867;48.094;11.478;2023-04-19T00:52:12;95557.88;;;8.80;100.00
19457;BME280;9867;48.094;11.478;2023-04-19T00:54:41;95554.25;;;8.74;100.00
19457;BME280;9867;48.094;11.478;2023-04-19T00:57:12;95559.13;;;8.69;100.00
19457;BME280;9867;48.094;11.478;2023-04-19T00:59:42;95557.53;;;8.68;100.00
19457;BME280;9867;48.094;11.478;2023-04-19T01:02:10;95564.41;;;8.82;100.00
19457;BME280;9867;48.094;11.478;2023-04-19T01:04:38;95556.22;;;8.72;100.00
19457;BME280;9867;48.094;11.478;2023-04-19T01:07:07;95550.66;;;8.69;100.00
19457;BME280;9867;48.094;11.478;2023-04-19T01:09:39;95556.00;;;8.59;100.00
19457;BME280;9867;48.094;11.478;2023-04-19T01:12:08;95552.31;;;8.62;100.00
19457;BME280;9867;48.094;11.478;2023-04-19T01:14:36;95545.53;;;8.69;100.00
19457;BME280;9867;48.094;11.478;2023-04-19T01:17:06;95547.31;;;8.68;100.00
19457;BME280;9867;48.094;11.478;2023-04-19T01:19:34;95532.19;;;8.59;100.00
19457;BME280;9867;48.094;11.478;2023-04-19T01:22:02;95539.00;;;8.66;100.00
19457;BME280;9867;48.094;11.478;2023-04-19T01:24:33;95532.81;;;8.75;100.00
19457;BME280;9867;48.094;11.478;2023-04-19T01:27:01;95544.75;;;8.68;100.00
19457;BME280;9867;48.094;11.478;2023-04-19T01:29:29;95527.53;;;8.62;100.00
19457;BME280;9867;48.094;11.478;2023-04-19T01:31:57;95526.38;;;8.50;100.00
19457;BME280;9867;48.094;11.478;2023-04-19T01:34:25;95531.22;;;8.60;100.00
19457;BME280;9867;48.094;11.478;2023-04-19T01:36:53;95526.19;;;8.51;100.00
19457;BME280;9867;48.094;11.478;2023-04-19T01:39:22;95523.72;;;8.58;100.00
19457;BME280;9867;48.094;11.478;2023-04-19T01:41:51;95527.06;;;8.59;100.00
19457;BME280;9867;48.094;11.478;2023-04-19T01:44:19;95520.25;;;8.51;100.00
19457;BME280;9867;48.094;11.478;2023-04-19T01:46:48;95522.03;;;8.50;100.00
19457;BME280;9867;48.094;11.478;2023-04-19T01:49:16;95523.53;;;8.45;100.00
19457;BME280;9867;48.094;11.478;2023-04-19T01:51:44;95521.44;;;8.48;100.00
19457;BME280;9867;48.094;11.478;2023-04-19T01:54:12;95515.88;;;8.45;100.00
19457;BME280;9867;48.094;11.478;2023-04-19T01:56:40;95515.78;;;8.53;100.00
19457;BME280;9867;48.094;11.478;2023-04-19T01:59:10;95520.72;;;8.54;100.00
19457;BME280;9867;48.094;11.478;2023-04-19T02:01:40;95511.63;;;8.52;100.00
19457;BME280;9867;48.094;11.478;2023-04-19T02:04:08;95508.03;;;8.46;100.00
19457;BME280;9867;48.094;11.478;2023-04-19T02:06:36;95511.63;;;8.52;100.00
19457;BME280;9867;48.094;11.478;2023-04-19T02:09:04;95506.44;;;8.60;100.00
19457;BME280;9867;48.094;11.478;2023-04-19T02:11:33;95507.25;;;8.61;100.00
19457;BME280;9867;48.094;11.478;2023-04-19T02:14:01;95504.97;;;8.66;100.00
19457;BME280;9867;48.094;11.478;2023-04-19T02:16:31;95507.25;;;8.61;100.00
19457;BME280;9867;48.094;11.478;2023-04-19T02:19:01;95500.44;;;8.53;100.00
19457;BME280;9867;48.094;11.478;2023-04-19T02:21:29;95502.91;;;8.46;100.00
19457;BME280;9867;48.094;11.478;2023-04-19T02:23:57;95489.19;;;8.25;100.00
19457;BME280;9867;48.094;11.478;2023-04-19T02:26:25;95487.41;;;8.25;100.00
19457;BME280;9867;48.094;11.478;2023-04-19T02:28:53;95480.09;;;8.22;100.00
19457;BME280;9867;48.094;11.478;2023-04-19T02:31:21;95475.16;;;8.20;100.00
19457;BME280;9867;48.094;11.478;2023-04-19T02:33:51;95471.19;;;8.18;100.00
19457;BME280;9867;48.094;11.478;2023-04-19T02:36:19;95468.44;;;8.19;100.00
19457;BME280;9867;48.094;11.478;2023-04-19T02:38:47;95459.81;;;8.20;100.00
19457;BME280;9867;48.094;11.478;2023-04-19T02:41:14;95461.19;;;8.08;100.00
19457;BME280;9867;48.094;11.478;2023-04-19T02:43:43;95461.47;;;8.13;100.00
19457;BME280;9867;48.094;11.478;2023-04-19T02:46:15;95454.03;;;8.04;100.00
19457;BME280;9867;48.094;11.478;2023-04-19T02:48:42;95452.47;;;8.03;100.00
19457;BME280;9867;48.094;11.478;2023-04-19T02:51:15;95458.25;;;7.97;100.00
19457;BME280;9867;48.094;11.478;2023-04-19T02:53:43;95446.28;;;7.97;100.00
19457;BME280;9867;48.094;11.478;2023-04-19T02:56:11;95445.03;;;7.93;100.00
19457;BME280;9867;48.094;11.478;2023-04-19T02:58:42;95444.97;;;8.01;100.00
19457;BME280;9867;48.094;11.478;2023-04-19T03:01:10;95439.69;;;8.03;100.00
19457;BME280;9867;48.094;11.478;2023-04-19T03:03:38;95442.78;;;7.98;100.00
19457;BME280;9867;48.094;11.478;2023-04-19T03:06:07;95432.16;;;7.86;100.00
19457;BME280;9867;48.094;11.478;2023-04-19T03:08:36;95434.31;;;7.98;100.00
19457;BME280;9867;48.094;11.478;2023-04-19T03:11:05;95436.25;;;7.96;100.00
19457;BME280;9867;48.094;11.478;2023-04-19T03:13:33;95429.53;;;7.95;100.00
19457;BME280;9867;48.094;11.478;2023-04-19T03:16:02;95420.19;;;7.87;100.00
19457;BME280;9867;48.094;11.478;2023-04-19T03:18:30;95431.63;;;7.76;100.00
19457;BME280;9867;48.094;11.478;2023-04-19T03:21:01;95427.19;;;7.70;100.00
19457;BME280;9867;48.094;11.478;2023-04-19T03:23:37;95420.81;;;7.66;100.00
19457;BME280;9867;48.094;11.478;2023-04-19T03:26:05;95413.97;;;7.67;100.00
19457;BME280;9867;48.094;11.478;2023-04-19T03:28:39;95418.84;;;7.76;100.00
19457;BME280;9867;48.094;11.478;2023-04-19T03:31:22;95408.09;;;7.81;100.00
19457;BME280;9867;48.094;11.478;2023-04-19T03:33:52;95410.59;;;7.89;100.00
19457;BME280;9867;48.094;11.478;2023-04-19T03:36:24;95407.63;;;8.00;100.00
19457;BME280;9867;48.094;11.478;2023-04-19T03:38:54;95407.88;;;7.91;100.00
19457;BME280;9867;48.094;11.478;2023-04-19T03:41:23;95402.97;;;7.81;100.00
19457;BME280;9867;48.094;11.478;2023-04-19T03:44:07;95402.00;;;7.82;100.00
19457;BME280;9867;48.094;11.478;2023-04-19T03:46:36;95403.78;;;7.81;100.00
19457;BME280;9867;48.094;11.478;2023-04-19T03:49:04;95402.31;;;7.87;100.00
19457;BME280;9867;48.094;11.478;2023-04-19T03:51:32;95400.88;;;7.84;100.00
19457;BME280;9867;48.094;11.478;2023-04-19T03:54:01;95401.38;;;7.80;100.00
19457;BME280;9867;48.094;11.478;2023-04-19T03:56:29;95394.97;;;7.84;100.00
19457;BME280;9867;48.094;11.478;2023-04-19T03:58:57;95400.72;;;7.86;100.00
19457;BME280;9867;48.094;11.478;2023-04-19T04:01:26;95400.66;;;7.94;100.00
19457;BME280;9867;48.094;11.478;2023-04-19T04:03:55;95404.28;;;8.00;100.00
19457;BME280;9867;48.094;11.478;2023-04-19T04:06:24;95402.41;;;7.94;100.00
19457;BME280;9867;48.094;11.478;2023-04-19T04:08:52;95401.44;;;7.95;100.00
19457;BME280;9867;48.094;11.478;2023-04-19T04:11:21;95404.84;;;7.87;100.00
19457;BME280;9867;48.094;11.478;2023-04-19T04:13:49;95402.72;;;7.76;100.00
19457;BME280;9867;48.094;11.478;2023-04-19T04:16:21;95408.63;;;7.76;100.00
19457;BME280;9867;48.094;11.478;2023-04-19T04:18:51;95403.44;;;7.84;100.00
19457;BME280;9867;48.094;11.478;2023-04-19T04:21:23;95403.09;;;7.87;100.00
19457;BME280;9867;48.094;11.478;2023-04-19T04:23:54;95408.72;;;7.83;100.00
19457;BME280;9867;48.094;11.478;2023-04-19T04:26:32;95399.09;;;7.70;100.00
19457;BME280;9867;48.094;11.478;2023-04-19T04:29:22;95401.47;;;7.72;100.00
19457;BME280;9867;48.094;11.478;2023-04-19T04:31:53;95406.75;;;7.70;100.00
19457;BME280;9867;48.094;11.478;2023-04-19T04:34:26;95406.13;;;7.68;100.00
19457;BME280;9867;48.094;11.478;2023-04-19T04:37:03;95407.25;;;7.66;100.00
19457;BME280;9867;48.094;11.478;2023-04-19T04:39:31;95406.00;;;7.62;100.00
19457;BME280;9867;48.094;11.478;2023-04-19T04:42:07;95402.66;;;7.61;100.00
19457;BME280;9867;48.094;11.478;2023-04-19T04:44:35;95402.16;;;7.66;100.00
19457;BME280;9867;48.094;11.478;2023-04-19T04:47:05;95406.06;;;7.76;100.00
19457;BME280;9867;48.094;11.478;2023-04-19T04:49:40;95401.81;;;7.69;100.00
19457;BME280;9867;48.094;11.478;2023-04-19T04:52:08;95405.00;;;7.71;100.00
19457;BME280;9867;48.094;11.478;2023-04-19T04:54:45;95398.25;;;7.78;100.00
19457;BME280;9867;48.094;11.478;2023-04-19T04:57:23;95403.59;;;7.83;100.00
19457;BME280;9867;48.094;11.478;2023-04-19T04:59:51;95402.78;;;7.68;100.00
19457;BME280;9867;48.094;11.478;2023-04-19T05:02:19;95407.25;;;7.66;100.00
19457;BME280;9867;48.094;11.478;2023-04-19T05:04:49;95403.16;;;7.57;100.00
19457;BME280;9867;48.094;11.478;2023-04-19T05:07:17;95404.09;;;7.64;100.00
19457;BME280;9867;48.094;11.478;2023-04-19T05:09:45;95396.44;;;7.64;100.00
19457;BME280;9867;48.094;11.478;2023-04-19T05:12:18;95394.16;;;7.69;100.00
19457;BME280;9867;48.094;11.478;2023-04-19T05:14:47;95396.31;;;7.57;100.00
19457;BME280;9867;48.094;11.478;2023-04-19T05:17:15;95384.63;;;7.63;100.00
19457;BME280;9867;48.094;11.478;2023-04-19T05:19:44;95383.66;;;7.64;100.00
19457;BME280;9867;48.094;11.478;2023-04-19T05:22:12;95393.47;;;7.75;100.00
19457;BME280;9867;48.094;11.478;2023-04-19T05:24:41;95398.75;;;7.73;100.00
19457;BME280;9867;48.094;11.478;2023-04-19T05:27:09;95399.25;;;7.69;100.00
19457;BME280;9867;48.094;11.478;2023-04-19T05:29:37;95394.00;;;7.70;100.00
19457;BME280;9867;48.094;11.478;2023-04-19T05:32:07;95395.28;;;7.66;100.00
19457;BME280;9867;48.094;11.478;2023-04-19T05:34:42;95388.31;;;7.60;100.00
19457;BME280;9867;48.094;11.478;2023-04-19T05:37:13;95385.41;;;7.63;100.00
19457;BME280;9867;48.094;11.478;2023-04-19T05:39:41;95388.38;;;7.75;100.00
19457;BME280;9867;48.094;11.478;2023-04-19T05:42:10;95386.28;;;7.78;100.00
19457;BME280;9867;48.094;11.478;2023-04-19T05:44:38;95391.44;;;7.70;100.00
19457;BME280;9867;48.094;11.478;2023-04-19T05:47:07;95391.59;;;7.69;100.00
19457;BME280;9867;48.094;11.478;2023-04-19T05:50:01;95393.19;;;7.70;100.00
19457;BME280;9867;48.094;11.478;2023-04-19T05:52:33;95392.97;;;7.57;100.00
19457;BME280;9867;48.094;11.478;2023-04-19T05:55:03;95386.03;;;7.65;100.00
19457;BME280;9867;48.094;11.478;2023-04-19T05:57:33;95387.34;;;7.61;100.00
19457;BME280;9867;48.094;11.478;2023-04-19T06:00:01;95390.19;;;7.66;100.00
19457;BME280;9867;48.094;11.478;2023-04-19T06:02:47;95384.28;;;7.66;100.00
19457;BME280;9867;48.094;11.478;2023-04-19T06:05:16;95393.19;;;7.70;100.00
19457;BME280;9867;48.094;11.478;2023-04-19T06:07:44;95391.09;;;7.73;100.00
19457;BME280;9867;48.094;11.478;2023-04-19T06:10:25;95389.38;;;7.66;100.00
19457;BME280;9867;48.094;11.478;2023-04-19T06:13:06;95394.44;;;7.74;100.00
19457;BME280;9867;48.094;11.478;2023-04-19T06:15:34;95392.50;;;7.76;100.00
19457;BME280;9867;48.094;11.478;2023-04-19T06:18:03;95389.63;;;7.79;100.00
19457;BME280;9867;48.094;11.478;2023-04-19T06:20:36;95378.41;;;7.80;100.00
19457;BME280;9867;48.094;11.478;2023-04-19T06:23:04;95394.72;;;7.79;100.00
19457;BME280;9867;48.094;11.478;2023-04-19T06:25:32;95394.44;;;7.74;100.00
19457;BME280;9867;48.094;11.478;2023-04-19T06:28:00;95398.25;;;7.78;100.00
19457;BME280;9867;48.094;11.478;2023-04-19T06:30:28;95386.53;;;7.83;100.00
19457;BME280;9867;48.094;11.478;2023-04-19T06:32:56;95395.09;;;7.91;100.00
19457;BME280;9867;48.094;11.478;2023-04-19T06:35:25;95389.06;;;7.83;100.00
19457;BME280;9867;48.094;11.478;2023-04-19T06:37:53;95398.16;;;7.86;100.00
19457;BME280;9867;48.094;11.478;2023-04-19T06:40:21;95390.66;;;7.84;100.00
19457;BME280;9867;48.094;11.478;2023-04-19T06:42:49;95397.03;;;7.88;100.00
19457;BME280;9867;48.094;11.478;2023-04-19T06:45:17;95395.09;;;7.91;100.00
19457;BME280;9867;48.094;11.478;2023-04-19T06:47:45;95394.63;;;7.87;100.00
19457;BME280;9867;48.094;11.478;2023-04-19T06:50:13;95398.09;;;7.94;100.00
19457;BME280;9867;48.094;11.478;2023-04-19T06:52:43;95387.09;;;7.94;100.00
19457;BME280;9867;48.094;11.478;2023-04-19T06:55:11;95397.31;;;8.08;100.00
19457;BME280;9867;48.094;11.478;2023-04-19T06:57:39;95393.09;;;8.01;100.00
19457;BME280;9867;48.094;11.478;2023-04-19T07:00:09;95388.66;;;7.95;100.00
19457;BME280;9867;48.094;11.478;2023-04-19T07:02:37;95399.78;;;8.02;100.00
19457;BME280;9867;48.094;11.478;2023-04-19T07:05:06;95396.69;;;8.06;100.00
19457;BME280;9867;48.094;11.478;2023-04-19T07:07:34;95396.06;;;8.04;100.00
19457;BME280;9867;48.094;11.478;2023-04-19T07:10:06;95389.19;;;8.05;100.00
19457;BME280;9867;48.094;11.478;2023-04-19T07:12:34;95399.34;;;8.13;100.00
19457;BME280;9867;48.094;11.478;2023-04-19T07:15:03;95394.06;;;8.14;100.00
19457;BME280;9867;48.094;11.478;2023-04-19T07:17:33;95380.31;;;8.89;100.00
19457;BME280;9867;48.094;11.478;2023-04-19T07:20:01;95435.28;;;10.14;100.00
19457;BME280;9867;48.094;11.478;2023-04-19T07:22:29;95428.78;;;10.18;100.00
19457;BME280;9867;48.094;11.478;2023-04-19T07:24:57;95428.78;;;9.90;100.00
19457;BME280;9867;48.094;11.478;2023-04-19T07:27:26;95419.50;;;10.17;100.00
19457;BME280;9867;48.094;11.478;2023-04-19T07:29:54;95426.81;;;9.71;100.00
19457;BME280;9867;48.094;11.478;2023-04-19T07:32:22;95424.63;;;9.89;100.00
19457;BME280;9867;48.094;11.478;2023-04-19T07:34:50;95418.97;;;9.51;100.00
19457;BME280;9867;48.094;11.478;2023-04-19T07:37:18;95424.75;;;9.81;100.00
19457;BME280;9867;48.094;11.478;2023-04-19T07:39:46;95421.41;;;9.81;100.00
19457;BME280;9867;48.094;11.478;2023-04-19T07:42:14;95416.75;;;9.48;100.00
19457;BME280;9867;48.094;11.478;2023-04-19T07:44:43;95414.25;;;9.34;100.00
19457;BME280;9867;48.094;11.478;2023-04-19T07:47:11;95414.19;;;9.91;100.00
19457;BME280;9867;48.094;11.478;2023-04-19T07:49:39;95407.63;;;9.61;100.00
19457;BME280;9867;48.094;11.478;2023-04-19T07:52:08;95407.28;;;9.42;100.00
19457;BME280;9867;48.094;11.478;2023-04-19T07:54:35;95404.81;;;9.55;100.00
19457;BME280;9867;48.094;11.478;2023-04-19T07:57:07;95410.25;;;9.88;100.00
19457;BME280;9867;48.094;11.478;2023-04-19T07:59:34;95410.28;;;9.74;100.00
19457;BME280;9867;48.094;11.478;2023-04-19T08:02:04;95400.09;;;9.80;100.00
19457;BME280;9867;48.094;11.478;2023-04-19T08:04:33;95402.34;;;10.39;100.00
19457;BME280;9867;48.094;11.478;2023-04-19T08:07:01;95404.91;;;10.18;100.00
19457;BME280;9867;48.094;11.478;2023-04-19T08:09:32;95400.06;;;10.02;100.00
19457;BME280;9867;48.094;11.478;2023-04-19T08:12:00;95408.53;;;10.51;100.00
19457;BME280;9867;48.094;11.478;2023-04-19T08:14:28;95404.75;;;9.91;100.00
19457;BME280;9867;48.094;11.478;2023-04-19T08:17:14;95407.91;;;10.49;100.00
19457;BME280;9867;48.094;11.478;2023-04-19T08:19:54;95403.97;;;10.94;100.00
19457;BME280;9867;48.094;11.478;2023-04-19T08:22:22;95406.69;;;11.41;100.00
19457;BME280;9867;48.094;11.478;2023-04-19T08:24:50;95405.09;;;11.33;100.00
19457;BME280;9867;48.094;11.478;2023-04-19T08:27:19;95402.06;;;11.16;100.00
19457;BME280;9867;48.094;11.478;2023-04-19T08:29:47;95408.56;;;10.58;100.00
19457;BME280;9867;48.094;11.478;2023-04-19T08:32:16;95396.84;;;10.14;100.00
19457;BME280;9867;48.094;11.478;2023-04-19T08:34:44;95398.63;;;9.71;100.00
19457;BME280;9867;48.094;11.478;2023-04-19T08:37:11;95396.50;;;9.75;100.00
19457;BME280;9867;48.094;11.478;2023-04-19T08:39:39;95393.59;;;9.78;100.00
19457;BME280;9867;48.094;11.478;2023-04-19T08:42:08;95391.44;;;9.81;100.00
19457;BME280;9867;48.094;11.478;2023-04-19T08:44:55;95378.56;;;9.75;100.00
19457;BME280;9867;48.094;11.478;2023-04-19T08:47:45;95383.84;;;9.67;100.00
19457;BME280;9867;48.094;11.478;2023-04-19T08:50:27;95379.69;;;9.66;100.00
19457;BME280;9867;48.094;11.478;2023-04-19T08:52:58;95385.78;;;9.86;100.00
19457;BME280;9867;48.094;11.478;2023-04-19T08:55:46;95378.41;;;10.04;100.00
19457;BME280;9867;48.094;11.478;2023-04-19T08:58:18;95375.34;;;9.87;100.00
19457;BME280;9867;48.094;11.478;2023-04-19T09:01:03;95385.44;;;9.68;100.00
19457;BME280;9867;48.094;11.478;2023-04-19T09:03:33;95380.63;;;9.58;100.00
19457;BME280;9867;48.094;11.478;2023-04-19T09:06:21;95378.06;;;9.58;100.00
19457;BME280;9867;48.094;11.478;2023-04-19T09:08:49;95365.22;;;9.79;100.00
19457;BME280;9867;48.094;11.478;2023-04-19T09:11:35;95367.41;;;9.82;100.00
19457;BME280;9867;48.094;11.478;2023-04-19T09:14:07;95371.63;;;9.90;100.00
19457;BME280;9867;48.094;11.478;2023-04-19T09:16:35;95370.56;;;9.56;100.00
19457;BME280;9867;48.094;11.478;2023-04-19T09:19:06;95368.97;;;9.55;100.00
19457;BME280;9867;48.094;11.478;2023-04-19T09:21:50;95364.09;;;9.39;100.00
19457;BME280;9867;48.094;11.478;2023-04-19T09:24:36;95359.75;;;9.61;100.00
19457;BME280;9867;48.094;11.478;2023-04-19T09:27:07;95356.06;;;9.70;100.00
19457;BME280;9867;48.094;11.478;2023-04-19T09:29:37;95358.69;;;10.05;100.00
19457;BME280;9867;48.094;11.478;2023-04-19T09:32:05;95350.81;;;10.06;100.00
19457;BME280;9867;48.094;11.478;2023-04-19T09:34:34;95362.81;;;10.27;100.00
19457;BME280;9867;48.094;11.478;2023-04-19T09:37:11;95356.66;;;10.21;100.00
19457;BME280;9867;48.094;11.478;2023-04-19T09:39:59;95353.44;;;10.47;100.00
19457;BME280;9867;48.094;11.478;2023-04-19T09:42:43;95358.63;;;10.19;100.00
19457;BME280;9867;48.094;11.478;2023-04-19T09:45:15;95354.22;;;10.48;100.00
19457;BME280;9867;48.094;11.478;2023-04-19T09:48:03;95342.09;;;10.70;100.00
19457;BME280;9867;48.094;11.478;2023-04-19T09:50:35;95338.38;;;10.79;100.00
19457;BME280;9867;48.094;11.478;2023-04-19T09:53:20;95331.41;;;10.66;100.00
19457;BME280;9867;48.094;11.478;2023-04-19T09:55:48;95323.97;;;10.78;100.00
19457;BME280;9867;48.094;11.478;2023-04-19T09:58:28;95329.50;;;10.75;100.00
19457;BME280;9867;48.094;11.478;2023-04-19T10:00:59;95324.47;;;10.53;100.00
19457;BME280;9867;48.094;11.478;2023-04-19T10:03:42;95320.63;;;10.84;100.00
19457;BME280;9867;48.094;11.478;2023-04-19T10:06:14;95328.84;;;10.59;100.00
19457;BME280;9867;48.094;11.478;2023-04-19T10:09:03;95316.81;;;10.67;100.00
19457;BME280;9867;48.094;11.478;2023-04-19T10:11:32;95320.91;;;11.22;100.00
19457;BME280;9867;48.094;11.478;2023-04-19T10:14:06;95317.78;;;11.46;100.00
19457;BME280;9867;48.094;11.478;2023-04-19T10:16:35;95316.00;;;11.47;100.00
19457;BME280;9867;48.094;11.478;2023-04-19T10:19:08;95322.31;;;11.44;100.00
19457;BME280;9867;48.094;11.478;2023-04-19T10:21:39;95318.78;;;11.91;100.00
19457;BME280;9867;48.094;11.478;2023-04-19T10:24:08;95307.06;;;12.15;100.00
19457;BME280;9867;48.094;11.478;2023-04-19T10:27:05;95307.69;;;11.71;100.00
19457;BME280;9867;48.094;11.478;2023-04-19T10:29:58;95303.53;;;12.03;100.00
19457;BME280;9867;48.094;11.478;2023-04-19T10:32:28;95302.97;;;12.59;100.00
19457;BME280;9867;48.094;11.478;2023-04-19T10:35:00;95297.91;;;12.33;100.00
19457;BME280;9867;48.094;11.478;2023-04-19T10:37:31;95288.38;;;12.40;100.00
19457;BME280;9867;48.094;11.478;2023-04-19T10:39:59;95294.03;;;12.61;100.00
19457;BME280;9867;48.094;11.478;2023-04-19T10:45:31;95281.34;;;12.22;100.00
19457;BME280;9867;48.094;11.478;2023-04-19T10:48:01;95280.19;;;12.62;100.00
19457;BME280;9867;48.094;11.478;2023-04-19T10:50:56;95283.75;;;12.55;100.00
19457;BME280;9867;48.094;11.478;2023-04-19T10:53:45;95268.72;;;12.52;100.00
19457;BME280;9867;48.094;11.478;2023-04-19T10:56:13;95272.94;;;12.84;100.00
19457;BME280;9867;48.094;11.478;2023-04-19T10:59:13;95265.28;;;12.71;100.00
19457;BME280;9867;48.094;11.478;2023-04-19T11:01:50;95265.13;;;12.08;100.00
19457;BME280;9867;48.094;11.478;2023-04-19T11:04:21;95273.69;;;11.16;100.00
19457;BME280;9867;48.094;11.478;2023-04-19T11:07:00;95263.06;;;10.39;100.00
19457;BME280;9867;48.094;11.478;2023-04-19T11:09:32;95256.91;;;9.99;100.00
19457;BME280;9867;48.094;11.478;2023-04-19T11:12:03;95267.91;;;9.58;100.00
19457;BME280;9867;48.094;11.478;2023-04-19T11:14:35;95262.13;;;9.49;100.00
19457;BME280;9867;48.094;11.478;2023-04-19T11:17:13;95255.63;;;9.47;100.00
19457;BME280;9867;48.094;11.478;2023-04-19T11:19:43;95246.97;;;9.48;100.00
19457;BME280;9867;48.094;11.478;2023-04-19T11:22:11;95248.78;;;9.54;100.00
19457;BME280;9867;48.094;11.478;2023-04-19T11:24:45;95255.66;;;9.53;100.00
19457;BME280;9867;48.094;11.478;2023-04-19T11:27:13;95234.94;;;9.48;100.00
19457;BME280;9867;48.094;11.478;2023-04-19T11:29:42;95245.06;;;9.56;100.00
19457;BME280;9867;48.094;11.478;2023-04-19T11:32:09;95234.03;;;9.56;100.00
19457;BME280;9867;48.094;11.478;2023-04-19T11:34:38;95226.38;;;9.63;100.00
19457;BME280;9867;48.094;11.478;2023-04-19T11:37:06;95236.81;;;9.61;100.00
19457;BME280;9867;48.094;11.478;2023-04-19T11:39:45;95233.41;;;9.54;100.00
19457;BME280;9867;48.094;11.478;2023-04-19T11:42:18;95226.72;;;9.53;100.00
19457;BME280;9867;48.094;11.478;2023-04-19T11:44:49;95216.28;;;9.54;100.00
19457;BME280;9867;48.094;11.478;2023-04-19T11:47:18;95215.53;;;9.61;100.00
19457;BME280;9867;48.094;11.478;2023-04-19T11:49:46;95206.09;;;9.61;100.00
19457;BME280;9867;48.094;11.478;2023-04-19T11:52:20;95217.34;;;9.67;100.00
19457;BME280;9867;48.094;11.478;2023-04-19T11:54:52;95209.88;;;9.72;100.00
19457;BME280;9867;48.094;11.478;2023-04-19T11:57:27;95219.91;;;9.67;100.00
19457;BME280;9867;48.094;11.478;2023-04-19T12:00:03;95203.94;;;9.71;100.00
19457;BME280;9867;48.094;11.478;2023-04-19T12:02:41;95204.34;;;9.68;100.00
19457;BME280;9867;48.094;11.478;2023-04-19T12:05:10;95200.38;;;9.31;100.00
19457;BME280;9867;48.094;11.478;2023-04-19T12:07:57;95207.53;;;9.14;100.00
19457;BME280;9867;48.094;11.478;2023-04-19T12:10:26;95205.13;;;8.85;100.00
19457;BME280;9867;48.094;11.478;2023-04-19T12:12:54;95204.41;;;8.70;100.00
19457;BME280;9867;48.094;11.478;2023-04-19T12:15:22;95199.53;;;8.53;100.00
19457;BME280;9867;48.094;11.478;2023-04-19T12:17:57;95180.78;;;8.68;100.00
19457;BME280;9867;48.094;11.478;2023-04-19T12:20:32;95168.97;;;8.67;100.00
19457;BME280;9867;48.094;11.478;2023-04-19T12:23:00;95165.28;;;8.76;100.00
19457;BME280;9867;48.094;11.478;2023-04-19T12:25:31;95165.53;;;8.81;100.00
19457;BME280;9867;48.094;11.478;2023-04-19T12:28:01;95164.25;;;8.92;100.00
19457;BME280;9867;48.094;11.478;2023-04-19T12:30:29;95163.66;;;8.89;100.00
19457;BME280;9867;48.094;11.478;2023-04-19T12:32:58;95166.34;;;8.81;100.00
19457;BME280;9867;48.094;11.478;2023-04-19T12:35:26;95162.72;;;8.69;100.00
19457;BME280;9867;48.094;11.478;2023-04-19T12:37:56;95168.00;;;8.68;100.00
19457;BME280;9867;48.094;11.478;2023-04-19T12:40:26;95176.94;;;8.36;100.00
19457;BME280;9867;48.094;11.478;2023-04-19T12:42:55;95173.88;;;8.26;100.00
19457;BME280;9867;48.094;11.478;2023-04-19T12:45:24;95155.19;;;8.25;100.00
19457;BME280;9867;48.094;11.478;2023-04-19T12:47:52;95160.00;;;8.35;100.00
19457;BME280;9867;48.094;11.478;2023-04-19T12:50:20;95161.59;;;8.36;100.00
19457;BME280;9867;48.094;11.478;2023-04-19T12:52:48;95156.78;;;8.26;100.00
19457;BME280;9867;48.094;11.478;2023-04-19T12:55:17;95149.03;;;8.19;100.00
19457;BME280;9867;48.094;11.478;2023-04-19T12:57:45;95146.72;;;8.25;100.00
19457;BME280;9867;48.094;11.478;2023-04-19T13:00:15;95150.78;;;8.19;100.00
19457;BME280;9867;48.094;11.478;2023-04-19T13:02:43;95157.09;;;8.38;100.00
19457;BME280;9867;48.094;11.478;2023-04-19T13:05:13;95155.59;;;8.29;100.00
19457;BME280;9867;48.094;11.478;2023-04-19T13:07:41;95157.06;;;8.16;100.00
19457;BME280;9867;48.094;11.478;2023-04-19T13:10:09;95149.56;;;8.15;100.00
19457;BME280;9867;48.094;11.478;2023-04-19T13:12:38;95150.47;;;8.07;100.00
19457;BME280;9867;48.094;11.478;2023-04-19T13:15:07;95138.81;;;8.19;100.00
19457;BME280;9867;48.094;11.478;2023-04-19T13:17:37;95135.06;;;8.37;100.00
19457;BME280;9867;48.094;11.478;2023-04-19T13:20:06;95144.41;;;8.30;100.00